首页
METAR-TAF:

METAR-TAF

机场 :

努美阿國際機場, 新喀里多尼亚

纬度: 22-01S, 经度: 166-13E, 海拔: 16米

当前天气观测

该预报发布于22分钟前的19:00 UTC
风速2节,风向多变
温度 21°C
湿度 78%
气压 1013 hPa
能见度10公里或以上
1500米以下无云,无积雨云

METAR: NWWW 221900Z AUTO VRB02KT CAVOK 21/17 Q1013 NOSIG

时间: 06:22 (19:22 UTC)

预报

该预报发布于2小时和22分钟前的17:00 UTC
预报有效从22日的 18点(UTC)到 23日的 18点(UTC)
风速6节,风向北转东北
能见度10公里或以上
少量云层高于5500英尺
短暂存在
从 23日的 00点(UTC)到 23日的 06点(UTC)
风速10节,风向东南
少量云层高于3000英尺, 塔状积云.
阵雨
成为
从 23日的 09点(UTC)到 23日的 11点(UTC)
风速2节,风向多变

TAF: NWWW 221700Z 2218/2318 02006KT 9999 FEW055 TEMPO 2300/2306 13010KT SHRA FEW030TCU BECMG 2309/2311 VRB02KT

超过4000个机场的气象观测和天气预报(METAR&TAF报告)。

可查询的气象台以黄色和红色小点在地图上表示。

将鼠标移到小点上方,可查看气象台名称。

然后点击查看天气观测和预报。

如需切换地图:点击带黑十字的绿色按钮放大地图;点击带横线的绿色按钮缩小地图;或者点击绿色箭头查看邻近地区的地图。


METAR-TAF: